Time;durP1;ratioP1;P1;durP2;ratioP2;P2;SDS_P1;SDS_P2;PMS_P1;PMS_P2;Temp;Humidity;BMP_temperature;BMP_pressure;BME280_temperature;BME280_humidity;BME280_pressure;Samples;Min_cycle;Max_cycle;Signal;HPM_P1;HPM_P2
2020/12/25 00:00:48;;;;;;;8.95;6.65;;;;;;;;;;5070918;28;20659;-77
2020/12/25 00:03:16;;;;;;;6.03;5.40;;;;;;;;;;5071868;28;20717;-76
2020/12/25 00:05:45;;;;;;;11.27;7.20;;;;;;;;;;5071925;28;20202;-77
2020/12/25 00:08:13;;;;;;;8.65;6.07;;;;;;;;;;5071878;28;20195;-76
2020/12/25 00:10:41;;;;;;;6.97;5.03;;;;;;;;;;5073859;28;20198;-77
2020/12/25 00:13:07;;;;;;;11.38;6.25;;;;;;;;;;5073686;28;20226;-77
2020/12/25 00:15:34;;;;;;;12.75;6.88;;;;;;;;;;5073680;28;20206;-76
2020/12/25 00:18:01;;;;;;;8.70;6.90;;;;;;;;;;5071490;28;20232;-77
2020/12/25 00:20:28;;;;;;;8.45;6.68;;;;;;;;;;5068194;28;20285;-77
2020/12/25 00:22:54;;;;;;;9.48;6.97;;;;;;;;;;5070624;28;20211;-76
2020/12/25 00:25:23;;;;;;;11.95;7.43;;;;;;;;;;5071249;28;20663;-77
2020/12/25 00:27:50;;;;;;;11.85;7.85;;;;;;;;;;5071086;28;20209;-76
2020/12/25 00:30:16;;;;;;;10.88;7.75;;;;;;;;;;5071803;28;20204;-76
2020/12/25 00:32:43;;;;;;;11.05;7.53;;;;;;;;;;5073539;28;20280;-76
2020/12/25 00:35:10;;;;;;;11.15;8.07;;;;;;;;;;5073730;28;20195;-76
2020/12/25 00:37:37;;;;;;;12.93;7.88;;;;;;;;;;5073264;28;20236;-76
2020/12/25 00:40:04;;;;;;;12.18;8.95;;;;;;;;;;5070925;28;20282;-76
2020/12/25 00:42:32;;;;;;;8.85;7.55;;;;;;;;;;5067719;28;20218;-76
2020/12/25 00:44:59;;;;;;;12.27;7.43;;;;;;;;;;5070279;28;20186;-75
2020/12/25 00:47:28;;;;;;;13.10;8.50;;;;;;;;;;5070742;28;20622;-76
2020/12/25 00:49:55;;;;;;;11.27;8.13;;;;;;;;;;5071337;28;20198;-76
2020/12/25 00:52:24;;;;;;;10.70;8.63;;;;;;;;;;5070939;28;20221;-76
2020/12/25 00:54:50;;;;;;;11.63;9.50;;;;;;;;;;5067654;28;20206;-75
2020/12/25 00:57:17;;;;;;;11.95;8.82;;;;;;;;;;5067781;28;20222;-77
2020/12/25 00:59:45;;;;;;;14.63;8.48;;;;;;;;;;5066705;28;20198;-77
2020/12/25 01:02:12;;;;;;;13.95;8.70;;;;;;;;;;5069238;28;20226;-76
2020/12/25 01:04:39;;;;;;;10.23;7.97;;;;;;;;;;5070292;28;20223;-76
2020/12/25 01:07:06;;;;;;;11.68;7.22;;;;;;;;;;5070786;28;20277;-76
2020/12/25 01:09:33;;;;;;;9.32;7.40;;;;;;;;;;5070405;28;20202;-76
2020/12/25 01:12:00;;;;;;;11.38;7.22;;;;;;;;;;5072940;28;20195;-75
2020/12/25 01:14:28;;;;;;;7.90;5.30;;;;;;;;;;5072782;28;20297;-76
2020/12/25 01:16:56;;;;;;;10.48;5.65;;;;;;;;;;5071550;28;20244;-76
2020/12/25 01:19:23;;;;;;;10.32;6.22;;;;;;;;;;5066022;28;20186;-76
2020/12/25 01:21:50;;;;;;;8.60;5.85;;;;;;;;;;5067761;28;20200;-76
2020/12/25 01:24:17;;;;;;;12.88;6.68;;;;;;;;;;5070406;28;20583;-75
2020/12/25 01:26:43;;;;;;;6.82;4.70;;;;;;;;;;5070284;28;20197;-76
2020/12/25 01:29:11;;;;;;;9.20;5.95;;;;;;;;;;5069027;28;20198;-76
2020/12/25 01:31:37;;;;;;;12.32;5.75;;;;;;;;;;5070527;28;20205;-76
2020/12/25 01:34:05;;;;;;;8.23;5.78;;;;;;;;;;5072125;28;20224;-76
2020/12/25 01:36:32;;;;;;;7.10;6.20;;;;;;;;;;5072019;28;20259;-77
2020/12/25 01:38:59;;;;;;;8.93;7.20;;;;;;;;;;5071656;28;20833;-77
2020/12/25 01:41:25;;;;;;;8.07;5.50;;;;;;;;;;5066918;28;20186;-77
2020/12/25 01:43:52;;;;;;;11.13;7.03;;;;;;;;;;5067302;28;20309;-77
2020/12/25 01:46:19;;;;;;;6.90;6.07;;;;;;;;;;5070054;28;20209;-76
2020/12/25 01:48:46;;;;;;;9.52;7.47;;;;;;;;;;5069570;28;20191;-76
2020/12/25 01:51:15;;;;;;;12.32;6.60;;;;;;;;;;5069675;28;20280;-76
2020/12/25 01:53:42;;;;;;;8.82;6.63;;;;;;;;;;5070873;28;20220;-75
2020/12/25 01:56:13;;;;;;;10.05;6.78;;;;;;;;;;5071901;28;20199;-76
2020/12/25 01:58:40;;;;;;;10.85;7.63;;;;;;;;;;5071853;28;20197;-77
2020/12/25 02:01:07;;;;;;;10.15;6.55;;;;;;;;;;5072034;28;20648;-78
2020/12/25 02:03:34;;;;;;;10.45;7.20;;;;;;;;;;5066307;28;20266;-77
2020/12/25 02:06:00;;;;;;;10.60;6.38;;;;;;;;;;5067049;28;20192;-78
2020/12/25 02:08:28;;;;;;;10.10;6.35;;;;;;;;;;5069389;28;20227;-77
2020/12/25 02:10:55;;;;;;;12.43;6.38;;;;;;;;;;5069226;28;20221;-77
2020/12/25 02:13:22;;;;;;;8.38;5.75;;;;;;;;;;5069401;28;20219;-77
2020/12/25 02:15:49;;;;;;;7.80;5.60;;;;;;;;;;5070689;28;20206;-77
2020/12/25 02:18:15;;;;;;;6.75;5.57;;;;;;;;;;5071278;28;20233;-76
2020/12/25 02:20:42;;;;;;;7.05;6.20;;;;;;;;;;5071782;28;20808;-76
2020/12/25 02:23:10;;;;;;;8.35;5.80;;;;;;;;;;5071540;28;20252;-76
2020/12/25 02:25:37;;;;;;;8.73;5.95;;;;;;;;;;5065654;28;20205;-77
2020/12/25 02:28:04;;;;;;;7.70;6.03;;;;;;;;;;5067135;28;20899;-77
2020/12/25 02:30:30;;;;;;;11.20;6.15;;;;;;;;;;5069072;28;20205;-77
2020/12/25 02:32:57;;;;;;;10.30;5.80;;;;;;;;;;5068800;28;20297;-77
2020/12/25 02:35:24;;;;;;;7.57;5.90;;;;;;;;;;5069333;28;20189;-76
2020/12/25 02:37:50;;;;;;;6.95;5.72;;;;;;;;;;5070405;28;20226;-78
2020/12/25 02:40:18;;;;;;;9.23;5.20;;;;;;;;;;5071342;28;20559;-76
2020/12/25 02:42:45;;;;;;;6.47;5.22;;;;;;;;;;5071229;28;20212;-77
2020/12/25 02:45:12;;;;;;;8.35;5.82;;;;;;;;;;5071173;28;20284;-76
2020/12/25 02:47:41;;;;;;;9.07;5.43;;;;;;;;;;5065555;28;20202;-77
2020/12/25 02:50:08;;;;;;;6.75;5.15;;;;;;;;;;5069592;28;20271;-77
2020/12/25 02:52:35;;;;;;;11.73;5.75;;;;;;;;;;5075618;28;20236;-78
2020/12/25 02:55:02;;;;;;;6.15;4.82;;;;;;;;;;5075531;28;20232;-78
2020/12/25 02:57:29;;;;;;;9.50;6.18;;;;;;;;;;5075441;28;20263;-76
2020/12/25 02:59:56;;;;;;;8.85;6.70;;;;;;;;;;5076818;28;20633;-77
2020/12/25 03:02:23;;;;;;;14.32;6.40;;;;;;;;;;5077922;28;20198;-77
2020/12/25 03:04:50;;;;;;;9.27;6.75;;;;;;;;;;5077906;28;20312;-76
2020/12/25 03:07:16;;;;;;;12.23;8.00;;;;;;;;;;5078040;28;20213;-76
2020/12/25 03:09:43;;;;;;;10.82;7.03;;;;;;;;;;5072137;28;20275;-78
2020/12/25 03:12:10;;;;;;;11.15;7.88;;;;;;;;;;5072920;28;20201;-76
2020/12/25 03:14:38;;;;;;;13.05;7.88;;;;;;;;;;5075622;28;20220;-77
2020/12/25 03:17:04;;;;;;;11.80;7.60;;;;;;;;;;5075406;28;20222;-76
2020/12/25 03:19:31;;;;;;;11.25;8.10;;;;;;;;;;5075711;28;20718;-77
2020/12/25 03:21:58;;;;;;;11.23;7.63;;;;;;;;;;5076820;28;20289;-75
2020/12/25 03:24:25;;;;;;;12.57;6.75;;;;;;;;;;5077484;28;20224;-75
2020/12/25 03:26:52;;;;;;;8.60;6.72;;;;;;;;;;5077518;28;20204;-75
2020/12/25 03:29:19;;;;;;;11.55;6.70;;;;;;;;;;5077712;28;20202;-76
2020/12/25 03:31:47;;;;;;;9.00;6.72;;;;;;;;;;5072004;28;20197;-76
2020/12/25 03:34:14;;;;;;;10.27;6.88;;;;;;;;;;5073058;28;20213;-76
2020/12/25 03:36:40;;;;;;;8.23;6.05;;;;;;;;;;5075164;28;20214;-76
2020/12/25 03:39:07;;;;;;;10.07;6.20;;;;;;;;;;5074967;28;20191;-76
2020/12/25 03:41:34;;;;;;;8.15;6.68;;;;;;;;;;5075201;28;20204;-77
2020/12/25 03:44:01;;;;;;;10.48;6.00;;;;;;;;;;5076401;28;20222;-76
2020/12/25 03:46:33;;;;;;;7.55;6.35;;;;;;;;;;5077558;28;20609;-77
2020/12/25 03:49:00;;;;;;;12.35;7.13;;;;;;;;;;5077294;28;20209;-75
2020/12/25 03:51:27;;;;;;;8.73;6.38;;;;;;;;;;5077117;28;20229;-77
2020/12/25 03:53:54;;;;;;;11.40;6.18;;;;;;;;;;5071389;28;20709;-76
2020/12/25 03:56:21;;;;;;;6.78;5.72;;;;;;;;;;5072447;28;20727;-76
2020/12/25 03:58:48;;;;;;;9.57;6.15;;;;;;;;;;5075043;28;20194;-77
2020/12/25 04:01:15;;;;;;;10.38;6.18;;;;;;;;;;5073236;28;20201;-77
2020/12/25 04:03:41;;;;;;;6.53;4.85;;;;;;;;;;5072252;28;20214;-76
2020/12/25 04:06:09;;;;;;;13.57;6.07;;;;;;;;;;5073248;28;20202;-76
2020/12/25 04:08:36;;;;;;;10.48;5.75;;;;;;;;;;5072742;28;20283;-75
2020/12/25 04:11:03;;;;;;;5.03;3.83;;;;;;;;;;5074114;28;20665;-77
2020/12/25 04:13:29;;;;;;;8.30;4.85;;;;;;;;;;5074055;28;20218;-77
2020/12/25 04:16:00;;;;;;;8.05;5.03;;;;;;;;;;5068238;28;20186;-76
2020/12/25 04:18:27;;;;;;;6.03;4.35;;;;;;;;;;5067863;28;20583;-76
2020/12/25 04:20:54;;;;;;;13.05;4.15;;;;;;;;;;5071579;28;20190;-76
2020/12/25 04:23:21;;;;;;;4.85;3.90;;;;;;;;;;5071269;28;20268;-76
2020/12/25 04:25:48;;;;;;;7.10;4.10;;;;;;;;;;5071729;28;20632;-76
2020/12/25 04:28:15;;;;;;;13.80;4.35;;;;;;;;;;5072937;28;20674;-75
2020/12/25 04:30:42;;;;;;;10.52;4.30;;;;;;;;;;5073602;28;20198;-76
2020/12/25 04:33:09;;;;;;;7.70;4.00;;;;;;;;;;5073569;28;20248;-76
2020/12/25 04:35:36;;;;;;;12.70;4.82;;;;;;;;;;5073122;28;20279;-76
2020/12/25 04:38:03;;;;;;;6.78;4.22;;;;;;;;;;5067382;28;20240;-76
2020/12/25 04:40:31;;;;;;;5.40;4.65;;;;;;;;;;5069267;28;20239;-77
2020/12/25 04:42:59;;;;;;;5.15;3.83;;;;;;;;;;5071309;28;20227;-76
2020/12/25 04:45:26;;;;;;;5.70;3.65;;;;;;;;;;5070953;28;20194;-77
2020/12/25 04:47:52;;;;;;;5.55;3.47;;;;;;;;;;5071061;28;20707;-77
2020/12/25 04:50:19;;;;;;;5.60;3.58;;;;;;;;;;5072509;28;20591;-78
2020/12/25 04:52:48;;;;;;;4.18;3.78;;;;;;;;;;5072811;28;20214;-76
2020/12/25 04:55:15;;;;;;;6.85;3.92;;;;;;;;;;5073158;28;20259;-77
2020/12/25 04:57:43;;;;;;;6.47;3.20;;;;;;;;;;5072731;28;20261;-77
2020/12/25 05:00:17;;;;;;;9.48;4.18;;;;;;;;;;5067306;28;20283;-76
2020/12/25 05:02:44;;;;;;;9.18;3.80;;;;;;;;;;5068613;28;20190;-77
2020/12/25 05:05:11;;;;;;;8.57;3.97;;;;;;;;;;5071089;28;20198;-76
2020/12/25 05:07:38;;;;;;;7.47;4.13;;;;;;;;;;5071138;28;20205;-78
2020/12/25 05:10:07;;;;;;;7.20;3.97;;;;;;;;;;5070798;28;20280;-77
2020/12/25 05:12:34;;;;;;;9.48;4.00;;;;;;;;;;5071632;28;20202;-76
2020/12/25 05:15:05;;;;;;;9.27;4.93;;;;;;;;;;5071962;28;20198;-77
2020/12/25 05:17:32;;;;;;;7.82;4.10;;;;;;;;;;5071170;28;20313;-76
2020/12/25 05:19:59;;;;;;;10.73;4.03;;;;;;;;;;5071745;28;20193;-76
2020/12/25 05:22:27;;;;;;;14.15;4.40;;;;;;;;;;5066993;28;20194;-77
2020/12/25 05:24:54;;;;;;;7.28;3.85;;;;;;;;;;5068463;28;20217;-78
2020/12/25 05:27:24;;;;;;;8.85;3.95;;;;;;;;;;5070100;28;20195;-77
2020/12/25 05:29:51;;;;;;;6.20;3.28;;;;;;;;;;5070010;28;20237;-77
2020/12/25 05:32:19;;;;;;;7.03;3.55;;;;;;;;;;5069957;28;20194;-77
2020/12/25 05:34:47;;;;;;;8.55;3.35;;;;;;;;;;5072260;28;20245;-76
2020/12/25 05:37:14;;;;;;;6.80;3.30;;;;;;;;;;5072079;28;20580;-78
2020/12/25 05:39:41;;;;;;;7.20;3.58;;;;;;;;;;5072472;28;20669;-77
2020/12/25 05:42:09;;;;;;;6.00;3.25;;;;;;;;;;5071154;28;20204;-77
2020/12/25 05:44:37;;;;;;;6.97;3.40;;;;;;;;;;5066184;28;20212;-77
2020/12/25 05:47:04;;;;;;;6.53;3.33;;;;;;;;;;5067246;28;20193;-77
2020/12/25 05:49:31;;;;;;;5.25;3.10;;;;;;;;;;5069751;28;20277;-77
2020/12/25 05:51:58;;;;;;;6.35;3.72;;;;;;;;;;5069507;28;20222;-76
2020/12/25 05:54:26;;;;;;;9.82;4.00;;;;;;;;;;5069403;28;20214;-77
2020/12/25 05:56:53;;;;;;;10.55;4.28;;;;;;;;;;5071677;28;20223;-78
2020/12/25 05:59:25;;;;;;;7.90;3.53;;;;;;;;;;5071997;28;20284;-77
2020/12/25 06:01:54;;;;;;;8.00;4.00;;;;;;;;;;5071851;28;20241;-77
2020/12/25 06:04:22;;;;;;;7.82;3.42;;;;;;;;;;5067347;28;20223;-77
2020/12/25 06:06:50;;;;;;;6.20;3.45;;;;;;;;;;5065987;28;20201;-77
2020/12/25 06:09:17;;;;;;;5.38;2.90;;;;;;;;;;5068347;28;20682;-76
2020/12/25 06:11:47;;;;;;;11.80;3.67;;;;;;;;;;5068221;28;20190;-76
2020/12/25 06:14:14;;;;;;;6.15;2.85;;;;;;;;;;5069519;28;20221;-77
2020/12/25 06:16:42;;;;;;;7.15;3.40;;;;;;;;;;5068165;28;20285;-77
2020/12/25 06:19:12;;;;;;;6.88;2.88;;;;;;;;;;5071626;28;20204;-76
2020/12/25 06:21:44;;;;;;;7.53;2.80;;;;;;;;;;5071532;28;20205;-79
2020/12/25 06:24:15;;;;;;;10.75;3.65;;;;;;;;;;5070949;28;20691;-79
2020/12/25 06:26:42;;;;;;;5.80;3.85;;;;;;;;;;5069338;28;20202;-78
2020/12/25 06:29:14;;;;;;;7.53;3.13;;;;;;;;;;5065757;28;20244;-78
2020/12/25 06:31:42;;;;;;;13.00;2.63;;;;;;;;;;5068235;28;20281;-77
2020/12/25 06:34:11;;;;;;;6.60;3.67;;;;;;;;;;5068599;28;20218;-77
2020/12/25 06:36:43;;;;;;;6.15;3.10;;;;;;;;;;5068798;28;20293;-77
2020/12/25 06:39:10;;;;;;;11.23;2.72;;;;;;;;;;5069611;28;20194;-77
2020/12/25 06:41:38;;;;;;;10.23;2.88;;;;;;;;;;5071385;28;20198;-78
2020/12/25 06:44:07;;;;;;;4.10;3.00;;;;;;;;;;5070026;28;20232;-79
2020/12/25 06:46:37;;;;;;;8.45;3.17;;;;;;;;;;5069990;28;20678;-79
2020/12/25 06:49:04;;;;;;;7.45;3.20;;;;;;;;;;5068165;28;20313;-77
2020/12/25 06:51:31;;;;;;;12.57;3.10;;;;;;;;;;5065420;28;20353;-77
2020/12/25 06:53:58;;;;;;;9.60;3.03;;;;;;;;;;5067971;28;20221;-77
2020/12/25 06:56:25;;;;;;;7.53;2.72;;;;;;;;;;5068869;28;20200;-77
2020/12/25 06:58:54;;;;;;;7.43;3.13;;;;;;;;;;5068889;28;20238;-78
2020/12/25 07:01:35;;;;;;;7.82;2.78;;;;;;;;;;5069308;28;20205;-77
2020/12/25 07:04:02;;;;;;;9.40;3.35;;;;;;;;;;5071186;28;20305;-77
2020/12/25 07:06:30;;;;;;;11.52;3.20;;;;;;;;;;5071259;28;20205;-77
2020/12/25 07:08:57;;;;;;;4.80;2.85;;;;;;;;;;5070974;28;20331;-78
2020/12/25 07:11:24;;;;;;;8.73;3.15;;;;;;;;;;5067509;28;20528;-77
2020/12/25 07:13:51;;;;;;;6.10;2.42;;;;;;;;;;5065576;28;20304;-80
2020/12/25 07:16:19;;;;;;;6.47;3.00;;;;;;;;;;5068368;28;20229;-77
2020/12/25 07:18:46;;;;;;;8.75;2.92;;;;;;;;;;5068603;28;20309;-78
2020/12/25 07:21:13;;;;;;;7.10;2.80;;;;;;;;;;5068908;28;20202;-77
2020/12/25 07:23:43;;;;;;;10.77;3.20;;;;;;;;;;5069224;28;20225;-77
2020/12/25 07:26:10;;;;;;;5.45;2.80;;;;;;;;;;5070883;28;20245;-77
2020/12/25 07:28:37;;;;;;;6.90;2.78;;;;;;;;;;5070640;28;20196;-78
2020/12/25 07:31:04;;;;;;;7.32;3.15;;;;;;;;;;5070839;28;20252;-77
2020/12/25 07:33:32;;;;;;;7.25;3.50;;;;;;;;;;5067167;28;20213;-77
2020/12/25 07:35:59;;;;;;;8.68;2.58;;;;;;;;;;5065732;28;20289;-76
2020/12/25 07:38:26;;;;;;;6.30;2.65;;;;;;;;;;5071472;28;20695;-78
2020/12/25 07:40:53;;;;;;;24.55;5.47;;;;;;;;;;5070717;28;20204;-78
2020/12/25 07:43:20;;;;;;;7.63;3.00;;;;;;;;;;5072225;28;20567;-78
2020/12/25 07:45:47;;;;;;;10.18;3.22;;;;;;;;;;5072919;28;20205;-76
2020/12/25 07:48:14;;;;;;;7.22;2.80;;;;;;;;;;5074445;28;20197;-75
2020/12/25 07:50:43;;;;;;;11.68;3.00;;;;;;;;;;5074027;28;20285;-76
2020/12/25 07:53:10;;;;;;;14.90;4.20;;;;;;;;;;5072955;28;20233;-76
2020/12/25 07:55:37;;;;;;;9.68;2.72;;;;;;;;;;5070381;28;20193;-77
2020/12/25 07:58:04;;;;;;;9.68;3.03;;;;;;;;;;5069087;28;20236;-78
2020/12/25 08:00:31;;;;;;;9.77;2.70;;;;;;;;;;5071431;28;20693;-79
2020/12/25 08:02:59;;;;;;;5.22;2.88;;;;;;;;;;5071676;28;20915;-78
2020/12/25 08:05:27;;;;;;;8.85;3.58;;;;;;;;;;5066527;28;20193;-81
2020/12/25 08:07:55;;;;;;;7.93;2.90;;;;;;;;;;5066326;28;20288;-82
2020/12/25 08:10:23;;;;;;;6.85;2.95;;;;;;;;;;5067698;28;20281;-82
2020/12/25 08:12:51;;;;;;;10.20;4.55;;;;;;;;;;5067833;28;20195;-78
2020/12/25 08:15:20;;;;;;;4.35;2.28;;;;;;;;;;5071594;28;20925;-83
2020/12/25 08:17:49;;;;;;;12.35;5.13;;;;;;;;;;5070137;28;20231;-78
2020/12/25 08:20:15;;;;;;;11.40;3.70;;;;;;;;;;5067279;28;20203;-80
2020/12/25 08:22:42;;;;;;;3.55;2.10;;;;;;;;;;5055240;28;20213;-79
2020/12/25 08:25:10;;;;;;;5.13;3.38;;;;;;;;;;5067552;28;20205;-79
2020/12/25 08:27:37;;;;;;;10.32;2.85;;;;;;;;;;5069780;28;20201;-78
2020/12/25 08:30:04;;;;;;;3.90;2.20;;;;;;;;;;5070862;28;20195;-80
2020/12/25 08:32:32;;;;;;;8.32;2.53;;;;;;;;;;5071475;28;20243;-80
2020/12/25 08:35:14;;;;;;;4.03;2.45;;;;;;;;;;5071601;28;20202;-78
2020/12/25 08:37:41;;;;;;;6.82;2.40;;;;;;;;;;5072350;28;20228;-76
2020/12/25 08:40:13;;;;;;;8.27;2.70;;;;;;;;;;5073817;28;20288;-78
2020/12/25 08:42:40;;;;;;;13.57;3.15;;;;;;;;;;5073333;28;20194;-79
2020/12/25 08:45:07;;;;;;;7.30;3.15;;;;;;;;;;5072210;28;20243;-82
2020/12/25 08:47:34;;;;;;;4.30;2.25;;;;;;;;;;5068946;28;20190;-80
2020/12/25 08:50:01;;;;;;;10.23;2.85;;;;;;;;;;5068774;28;20222;-80
2020/12/25 08:52:29;;;;;;;14.52;2.95;;;;;;;;;;5052511;28;20227;-80
2020/12/25 08:54:56;;;;;;;8.73;2.58;;;;;;;;;;5062208;28;20701;-79
2020/12/25 08:57:23;;;;;;;5.38;2.50;;;;;;;;;;5071650;28;20226;-79
2020/12/25 09:00:00;;;;;;;5.80;2.65;;;;;;;;;;5052874;28;20199;-78
2020/12/25 09:02:27;;;;;;;6.05;2.70;;;;;;;;;;5052542;28;20614;-76
2020/12/25 09:04:54;;;;;;;5.72;3.20;;;;;;;;;;5052865;28;20217;-78
2020/12/25 09:07:20;;;;;;;4.70;2.67;;;;;;;;;;5053954;28;20199;-77
2020/12/25 09:09:47;;;;;;;7.72;4.32;;;;;;;;;;5066514;28;20194;-79
2020/12/25 09:12:14;;;;;;;5.70;3.67;;;;;;;;;;5068694;28;20386;-78
2020/12/25 09:14:42;;;;;;;10.20;3.95;;;;;;;;;;5069607;28;20214;-79
2020/12/25 09:17:08;;;;;;;8.73;4.50;;;;;;;;;;5070499;28;20277;-79
2020/12/25 09:19:35;;;;;;;6.32;3.90;;;;;;;;;;5070829;28;20220;-78
2020/12/25 09:22:02;;;;;;;7.75;3.90;;;;;;;;;;5071839;28;20621;-79
2020/12/25 09:24:29;;;;;;;7.10;2.72;;;;;;;;;;5068700;28;20897;-78
2020/12/25 09:26:56;;;;;;;8.68;2.60;;;;;;;;;;5064974;28;20286;-79
2020/12/25 09:29:22;;;;;;;4.40;2.50;;;;;;;;;;5067170;28;20197;-80
2020/12/25 09:31:50;;;;;;;10.40;2.88;;;;;;;;;;5069464;28;20247;-80
2020/12/25 09:34:17;;;;;;;3.60;2.28;;;;;;;;;;5070006;28;20221;-78
2020/12/25 09:36:44;;;;;;;5.07;2.28;;;;;;;;;;5070351;28;20201;-84
2020/12/25 09:39:11;;;;;;;3.55;2.20;;;;;;;;;;5069673;28;20218;-79
2020/12/25 09:41:38;;;;;;;6.97;2.35;;;;;;;;;;5066221;28;20603;-83
2020/12/25 09:44:05;;;;;;;4.65;1.73;;;;;;;;;;5062606;28;20237;-78
2020/12/25 09:46:31;;;;;;;4.68;2.20;;;;;;;;;;5048554;28;20202;-79
2020/12/25 09:48:59;;;;;;;2.92;1.90;;;;;;;;;;5056462;28;20293;-77
2020/12/25 09:51:26;;;;;;;10.20;2.40;;;;;;;;;;5064968;28;20226;-78
2020/12/25 09:53:53;;;;;;;2.90;2.00;;;;;;;;;;5069796;28;20603;-79
2020/12/25 09:56:19;;;;;;;6.60;2.05;;;;;;;;;;5068835;28;20343;-78
2020/12/25 09:58:46;;;;;;;3.83;2.15;;;;;;;;;;5058727;28;20313;-77
2020/12/25 10:01:13;;;;;;;3.47;2.05;;;;;;;;;;5049782;28;20302;-77
2020/12/25 10:03:40;;;;;;;4.35;2.03;;;;;;;;;;5051761;28;20215;-79
2020/12/25 10:06:07;;;;;;;4.75;1.92;;;;;;;;;;5051871;28;20289;-79
2020/12/25 10:08:34;;;;;;;5.72;3.00;;;;;;;;;;5051844;28;20197;-77
2020/12/25 10:11:01;;;;;;;3.67;2.30;;;;;;;;;;5057300;28;20210;-78
2020/12/25 10:13:28;;;;;;;5.82;2.40;;;;;;;;;;5065200;28;20208;-77
2020/12/25 10:15:55;;;;;;;8.80;3.03;;;;;;;;;;5068736;28;20277;-79
2020/12/25 10:18:22;;;;;;;4.00;2.25;;;;;;;;;;5060309;28;20215;-78
2020/12/25 10:20:51;;;;;;;2.83;1.85;;;;;;;;;;5049407;28;20302;-77
2020/12/25 10:23:19;;;;;;;4.38;2.58;;;;;;;;;;5050239;28;20293;-79
2020/12/25 10:25:45;;;;;;;6.53;2.78;;;;;;;;;;5051177;28;20218;-78
2020/12/25 10:28:13;;;;;;;5.65;2.97;;;;;;;;;;5051488;28;20195;-78
2020/12/25 10:30:39;;;;;;;9.85;4.57;;;;;;;;;;5051615;28;20289;-79
2020/12/25 10:33:06;;;;;;;6.25;3.35;;;;;;;;;;5056509;28;20635;-79
2020/12/25 10:35:33;;;;;;;5.10;3.63;;;;;;;;;;5064117;28;20593;-77
2020/12/25 10:38:00;;;;;;;8.80;3.92;;;;;;;;;;5067888;28;20309;-78
2020/12/25 10:40:27;;;;;;;8.85;4.00;;;;;;;;;;5069151;28;20200;-77
2020/12/25 10:42:54;;;;;;;8.63;4.00;;;;;;;;;;5069313;28;20322;-77
2020/12/25 10:45:21;;;;;;;9.10;4.40;;;;;;;;;;5064545;28;20556;-84
2020/12/25 10:47:48;;;;;;;6.57;4.28;;;;;;;;;;5060689;28;20597;-81
2020/12/25 10:50:15;;;;;;;6.85;3.90;;;;;;;;;;5067172;28;20191;-81
2020/12/25 10:52:42;;;;;;;8.35;4.38;;;;;;;;;;5054555;28;20773;-78
2020/12/25 10:55:08;;;;;;;28.65;11.68;;;;;;;;;;5069655;28;20286;-81
2020/12/25 10:57:36;;;;;;;13.70;6.70;;;;;;;;;;5065824;28;20228;-81
2020/12/25 11:00:03;;;;;;;12.15;5.88;;;;;;;;;;5067752;28;20742;-78
2020/12/25 11:02:30;;;;;;;8.82;4.55;;;;;;;;;;5068853;28;20204;-81
2020/12/25 11:04:57;;;;;;;12.57;4.20;;;;;;;;;;5068814;28;20267;-84
2020/12/25 11:07:23;;;;;;;5.45;3.20;;;;;;;;;;5068865;28;20189;-81
2020/12/25 11:09:50;;;;;;;10.18;4.28;;;;;;;;;;5071005;28;20285;-82
2020/12/25 11:12:17;;;;;;;7.40;3.58;;;;;;;;;;5054608;28;20199;-79
2020/12/25 11:14:45;;;;;;;8.10;2.70;;;;;;;;;;5054772;28;20225;-80
2020/12/25 11:17:12;;;;;;;6.97;3.60;;;;;;;;;;5057403;28;20277;-78
2020/12/25 11:19:39;;;;;;;8.32;3.20;;;;;;;;;;5069017;28;20195;-77
2020/12/25 11:22:06;;;;;;;8.52;3.47;;;;;;;;;;5071213;28;20290;-81
2020/12/25 11:24:33;;;;;;;8.10;4.15;;;;;;;;;;5069307;28;20282;-78
2020/12/25 11:27:00;;;;;;;13.93;5.05;;;;;;;;;;5068750;28;20198;-78
2020/12/25 11:29:27;;;;;;;9.30;4.47;;;;;;;;;;5068266;28;20670;-78
2020/12/25 11:31:54;;;;;;;6.85;4.32;;;;;;;;;;5066674;28;20598;-79
2020/12/25 11:34:21;;;;;;;8.57;4.53;;;;;;;;;;5065270;28;20305;-78
2020/12/25 11:36:48;;;;;;;9.52;4.68;;;;;;;;;;5068011;28;20208;-77
2020/12/25 11:39:14;;;;;;;7.55;4.50;;;;;;;;;;5068607;28;20236;-78
2020/12/25 11:41:41;;;;;;;6.18;4.22;;;;;;;;;;5068864;28;20561;-77
2020/12/25 11:44:08;;;;;;;16.92;5.80;;;;;;;;;;5069129;28;20243;-79
2020/12/25 11:46:35;;;;;;;7.25;5.18;;;;;;;;;;5068313;28;20194;-79
2020/12/25 11:49:06;;;;;;;7.10;5.05;;;;;;;;;;5049761;28;20198;-82
2020/12/25 11:51:33;;;;;;;10.10;4.20;;;;;;;;;;5050327;28;20227;-78
2020/12/25 11:54:00;;;;;;;7.45;3.25;;;;;;;;;;5059293;28;20221;-77
2020/12/25 11:56:29;;;;;;;11.30;4.53;;;;;;;;;;5065134;28;20251;-78
2020/12/25 11:58:56;;;;;;;9.63;4.07;;;;;;;;;;5068008;28;20247;-77
2020/12/25 12:01:23;;;;;;;8.50;4.00;;;;;;;;;;5068126;28;20251;-78
2020/12/25 12:03:50;;;;;;;6.60;3.05;;;;;;;;;;5068458;28;20226;-77
2020/12/25 12:06:21;;;;;;;6.22;3.10;;;;;;;;;;5068428;28;20231;-78
2020/12/25 12:08:47;;;;;;;6.07;2.22;;;;;;;;;;5065184;28;20225;-77
2020/12/25 12:11:14;;;;;;;6.93;2.40;;;;;;;;;;5065458;28;20557;-78
2020/12/25 12:13:41;;;;;;;6.22;3.72;;;;;;;;;;5067453;28;20214;-78
2020/12/25 12:16:13;;;;;;;6.32;2.78;;;;;;;;;;5070035;28;20288;-77
2020/12/25 12:18:40;;;;;;;8.77;2.53;;;;;;;;;;5070491;28;20892;-78
2020/12/25 12:21:08;;;;;;;6.22;2.47;;;;;;;;;;5072310;28;20205;-77
2020/12/25 12:23:36;;;;;;;6.90;2.55;;;;;;;;;;5072891;28;20271;-77
2020/12/25 12:26:03;;;;;;;6.35;2.75;;;;;;;;;;5073589;28;20201;-77
2020/12/25 12:28:30;;;;;;;9.32;2.50;;;;;;;;;;5073370;28;20638;-76
2020/12/25 12:30:57;;;;;;;5.45;1.90;;;;;;;;;;5068356;28;20189;-77
2020/12/25 12:33:24;;;;;;;7.40;3.10;;;;;;;;;;5068740;28;20567;-78
2020/12/25 12:35:51;;;;;;;7.20;2.28;;;;;;;;;;5071119;28;20190;-78
2020/12/25 12:38:17;;;;;;;4.18;1.80;;;;;;;;;;5070832;28;20260;-78
2020/12/25 12:40:45;;;;;;;4.53;2.33;;;;;;;;;;5071506;28;20197;-78
2020/12/25 12:43:12;;;;;;;3.97;1.90;;;;;;;;;;5072179;28;20224;-78
2020/12/25 12:45:39;;;;;;;11.65;2.35;;;;;;;;;;5073375;28;20292;-77
2020/12/25 12:48:06;;;;;;;4.72;2.10;;;;;;;;;;5058774;28;20252;-79
2020/12/25 12:50:33;;;;;;;7.47;2.05;;;;;;;;;;5053062;28;20288;-76
2020/12/25 12:53:00;;;;;;;3.95;1.70;;;;;;;;;;5065521;28;20214;-77
2020/12/25 12:55:26;;;;;;;8.20;1.90;;;;;;;;;;5067484;28;20205;-78
2020/12/25 12:57:54;;;;;;;4.03;1.77;;;;;;;;;;5070349;28;20313;-77
2020/12/25 13:00:21;;;;;;;5.72;1.85;;;;;;;;;;5070285;28;20201;-79
2020/12/25 13:02:48;;;;;;;10.93;2.80;;;;;;;;;;5070467;28;20193;-80
2020/12/25 13:05:14;;;;;;;4.63;1.70;;;;;;;;;;5072067;28;20289;-78
2020/12/25 13:07:41;;;;;;;5.70;1.95;;;;;;;;;;5054337;28;20248;-78
2020/12/25 13:10:08;;;;;;;5.25;1.65;;;;;;;;;;5052556;28;20205;-78
2020/12/25 13:12:35;;;;;;;7.55;2.17;;;;;;;;;;5052539;28;20232;-78
2020/12/25 13:15:02;;;;;;;9.15;2.28;;;;;;;;;;5065119;28;20715;-78
2020/12/25 13:17:29;;;;;;;6.82;1.98;;;;;;;;;;5067566;28;20538;-78
2020/12/25 13:19:56;;;;;;;3.45;1.92;;;;;;;;;;5070528;28;20277;-78
2020/12/25 13:22:23;;;;;;;3.28;1.40;;;;;;;;;;5070394;28;20605;-78
2020/12/25 13:24:50;;;;;;;6.68;2.78;;;;;;;;;;5069316;28;20762;-79
2020/12/25 13:27:17;;;;;;;3.35;1.85;;;;;;;;;;5051933;28;20201;-78
2020/12/25 13:29:44;;;;;;;4.88;2.05;;;;;;;;;;5052363;28;20285;-79
2020/12/25 13:32:11;;;;;;;4.75;1.75;;;;;;;;;;5052486;28;20663;-78
2020/12/25 13:34:38;;;;;;;3.58;1.90;;;;;;;;;;5051187;28;20305;-77
2020/12/25 13:37:05;;;;;;;5.25;2.47;;;;;;;;;;5062535;28;20190;-77
2020/12/25 13:39:32;;;;;;;10.93;2.17;;;;;;;;;;5066980;28;20245;-77
2020/12/25 13:41:59;;;;;;;5.35;2.20;;;;;;;;;;5069664;28;20205;-77
2020/12/25 13:44:26;;;;;;;4.00;2.22;;;;;;;;;;5069796;28;20226;-76
2020/12/25 13:46:52;;;;;;;7.57;2.20;;;;;;;;;;5063111;28;20217;-77
2020/12/25 13:49:20;;;;;;;3.55;1.90;;;;;;;;;;5051116;28;20325;-77
2020/12/25 13:51:47;;;;;;;6.00;1.80;;;;;;;;;;5051754;28;20583;-78
2020/12/25 13:54:16;;;;;;;1.98;1.60;;;;;;;;;;5070353;28;20301;-77
2020/12/25 13:56:43;;;;;;;10.48;3.10;;;;;;;;;;5072047;28;20182;-77
2020/12/25 13:59:09;;;;;;;11.75;3.70;;;;;;;;;;5068134;28;20222;-77
2020/12/25 14:01:36;;;;;;;7.00;3.78;;;;;;;;;;5066568;28;20190;-77
2020/12/25 14:04:03;;;;;;;7.97;2.92;;;;;;;;;;5068914;28;20218;-77
2020/12/25 14:06:32;;;;;;;7.97;2.78;;;;;;;;;;5069255;28;20202;-76
2020/12/25 14:08:58;;;;;;;5.78;2.17;;;;;;;;;;5069999;28;20198;-77
2020/12/25 14:11:26;;;;;;;3.97;2.42;;;;;;;;;;5070299;28;20343;-77
2020/12/25 14:13:53;;;;;;;8.05;3.15;;;;;;;;;;5054147;28;20203;-78
2020/12/25 14:16:20;;;;;;;3.67;2.20;;;;;;;;;;5051452;28;20689;-77
2020/12/25 14:18:47;;;;;;;7.53;2.05;;;;;;;;;;5051587;28;20314;-77
2020/12/25 14:21:14;;;;;;;4.88;2.00;;;;;;;;;;5058559;28;20194;-77
2020/12/25 14:23:42;;;;;;;6.45;2.10;;;;;;;;;;5065700;28;20267;-77
2020/12/25 14:26:11;;;;;;;6.40;3.00;;;;;;;;;;5069020;28;20547;-79
2020/12/25 14:28:38;;;;;;;6.93;3.00;;;;;;;;;;5068112;28;20256;-85
2020/12/25 14:31:05;;;;;;;7.40;3.40;;;;;;;;;;5069105;28;20195;-85
2020/12/25 14:33:32;;;;;;;6.35;2.80;;;;;;;;;;5053804;28;20900;-82
2020/12/25 14:35:58;;;;;;;13.15;2.30;;;;;;;;;;5059525;28;20253;-78
2020/12/25 14:38:25;;;;;;;7.78;2.60;;;;;;;;;;5053299;28;20709;-77